Time;durP1;ratioP1;P1;durP2;ratioP2;P2;SDS_P1;SDS_P2;PMS_P1;PMS_P2;Temp;Humidity;BMP_temperature;BMP_pressure;BME280_temperature;BME280_humidity;BME280_pressure;Samples;Min_cycle;Max_cycle;Signal;HPM_P1;HPM_P2
2022/08/16 00:01:14;;;;;;;;;;;;;;;17.65;91.51;94881.78;5155640;27;1094;-49
2022/08/16 00:03:41;;;;;;;;;;;;;;;17.66;90.86;94887.00;5155842;27;1036;-49
2022/08/16 00:06:07;;;;;;;;;;;;;;;17.68;91.68;94887.59;5155690;27;1019;-49
2022/08/16 00:08:34;;;;;;;;;;;;;;;17.59;90.94;94888.03;5137380;27;1114;-50
2022/08/16 00:11:02;;;;;;;;;;;;;;;17.49;91.21;94888.44;5155746;27;1088;-49
2022/08/16 00:13:28;;;;;;;;;;;;;;;17.44;91.62;94894.50;5137178;27;1036;-49
2022/08/16 00:15:55;;;;;;;;;;;;;;;17.32;92.09;94888.91;5137356;27;1925;-48
2022/08/16 00:18:22;;;;;;;;;;;;;;;17.35;92.37;94899.28;5155572;27;1020;-48
2022/08/16 00:20:49;;;;;;;;;;;;;;;17.38;92.31;94892.66;5120446;27;1605;-49
2022/08/16 00:23:15;;;;;;;;;;;;;;;17.36;92.71;94883.91;5155387;27;1040;-49
2022/08/16 00:25:42;;;;;;;;;;;;;;;17.26;92.66;94889.72;5155457;27;1359;-48
2022/08/16 00:28:09;;;;;;;;;;;;;;;17.37;91.87;94893.66;5136750;27;1106;-49
2022/08/16 00:30:36;;;;;;;;;;;;;;;17.30;91.69;94898.25;5155432;27;1104;-48
2022/08/16 00:33:03;;;;;;;;;;;;;;;17.30;92.89;94906.34;5155075;27;1072;-48
2022/08/16 00:35:32;;;;;;;;;;;;;;;17.37;92.60;94902.59;5155398;27;2346;-48
2022/08/16 00:38:01;;;;;;;;;;;;;;;17.30;92.33;94903.66;5136112;27;1040;-52
2022/08/16 00:40:32;;;;;;;;;;;;;;;17.35;92.51;94898.47;5155889;27;1502;-48
2022/08/16 00:42:59;;;;;;;;;;;;;;;17.33;92.25;94898.66;5160272;27;1249;-49
2022/08/16 00:45:38;;;;;;;;;;;;;;;17.48;91.51;94911.13;5156066;27;1187;-49
2022/08/16 00:48:06;;;;;;;;;;;;;;;17.42;92.64;94904.69;5136804;27;965;-49
2022/08/16 00:50:34;;;;;;;;;;;;;;;17.37;93.04;94918.00;5155147;27;1087;-49
2022/08/16 00:53:00;;;;;;;;;;;;;;;17.44;93.71;94918.00;5155058;27;967;-49
2022/08/16 00:55:27;;;;;;;;;;;;;;;17.41;93.31;94921.09;5136682;27;1921;-49
2022/08/16 00:57:55;;;;;;;;;;;;;;;17.24;93.80;94921.53;5154849;27;1114;-49
2022/08/16 01:00:24;;;;;;;;;;;;;;;17.26;93.19;94924.03;5154966;27;1111;-49
2022/08/16 01:02:51;;;;;;;;;;;;;;;17.42;92.83;94918.19;5154953;27;1103;-49
2022/08/16 01:05:18;;;;;;;;;;;;;;;17.46;92.68;94926.72;5155025;27;1233;-49
2022/08/16 01:07:45;;;;;;;;;;;;;;;17.47;92.72;94917.56;5136686;27;1672;-49
2022/08/16 01:10:11;;;;;;;;;;;;;;;17.51;93.12;94918.81;5136493;27;1032;-49
2022/08/16 01:12:38;;;;;;;;;;;;;;;17.52;92.57;94910.50;5154764;27;1111;-49
2022/08/16 01:15:04;;;;;;;;;;;;;;;17.30;92.72;94918.00;5154575;27;2000;-49
2022/08/16 01:17:32;;;;;;;;;;;;;;;17.22;93.65;94922.78;5154726;27;1031;-49
2022/08/16 01:20:01;;;;;;;;;;;;;;;17.25;93.87;94925.91;5136488;27;1091;-49
2022/08/16 01:22:46;;;;;;;;;;;;;;;17.32;94.22;94928.59;5154527;27;1020;-49
2022/08/16 01:25:28;;;;;;;;;;;;;;;17.40;93.60;94935.69;5154899;27;1020;-49
2022/08/16 01:27:57;;;;;;;;;;;;;;;17.47;93.92;94941.88;5154743;27;1068;-49
2022/08/16 01:30:28;;;;;;;;;;;;;;;17.49;93.82;94943.38;5154686;27;1164;-49
2022/08/16 01:32:55;;;;;;;;;;;;;;;17.51;93.01;94941.28;5154566;27;1984;-49
2022/08/16 01:35:26;;;;;;;;;;;;;;;17.64;92.87;94939.59;5154645;27;2413;-49
2022/08/16 01:37:54;;;;;;;;;;;;;;;17.64;93.27;94940.44;5154547;27;1012;-49
2022/08/16 01:40:22;;;;;;;;;;;;;;;17.60;93.99;94939.16;5154590;27;1177;-49
2022/08/16 01:42:50;;;;;;;;;;;;;;;17.63;93.76;94941.47;5136120;27;1275;-49
2022/08/16 01:45:17;;;;;;;;;;;;;;;17.68;93.65;94944.38;5154853;27;1164;-49
2022/08/16 01:47:45;;;;;;;;;;;;;;;17.75;93.63;94950.59;5175332;27;1031;-49
2022/08/16 01:50:12;;;;;;;;;;;;;;;17.65;93.79;94954.78;5178488;27;1664;-49
2022/08/16 01:52:40;;;;;;;;;;;;;;;17.58;94.01;94954.78;5160788;27;1095;-49
2022/08/16 01:55:07;;;;;;;;;;;;;;;17.51;93.81;94967.44;5179177;27;1905;-49
2022/08/16 01:57:34;;;;;;;;;;;;;;;17.56;94.10;94946.03;5161036;27;1517;-49
2022/08/16 02:00:00;;;;;;;;;;;;;;;17.65;93.48;94941.25;5179033;27;1034;-48
2022/08/16 02:02:28;;;;;;;;;;;;;;;17.71;92.32;94933.13;5160687;27;1667;-49
2022/08/16 02:04:56;;;;;;;;;;;;;;;17.87;92.38;94928.34;5160615;27;1028;-49
2022/08/16 02:07:23;;;;;;;;;;;;;;;17.68;93.36;94919.19;5178942;27;1031;-49
2022/08/16 02:09:49;;;;;;;;;;;;;;;17.54;93.92;94910.28;5160480;27;964;-48
2022/08/16 02:12:16;;;;;;;;;;;;;;;17.64;93.54;94902.59;5179174;27;1453;-49
2022/08/16 02:14:42;;;;;;;;;;;;;;;17.81;92.87;94902.94;5178635;27;1988;-49
2022/08/16 02:17:09;;;;;;;;;;;;;;;17.95;92.68;94901.09;5179081;27;1055;-49
2022/08/16 02:19:38;;;;;;;;;;;;;;;17.84;93.42;94907.13;5160133;27;1012;-49
2022/08/16 02:22:05;;;;;;;;;;;;;;;17.82;93.83;94912.72;5178694;27;1877;-49
2022/08/16 02:24:32;;;;;;;;;;;;;;;17.72;94.09;94912.34;5178490;27;1054;-49
2022/08/16 02:26:59;;;;;;;;;;;;;;;17.71;94.61;94918.78;5178858;27;1649;-49
2022/08/16 02:29:25;;;;;;;;;;;;;;;17.76;94.38;94917.09;5178361;27;999;-49
2022/08/16 02:31:51;;;;;;;;;;;;;;;17.71;94.50;94918.78;5160056;27;1012;-49
2022/08/16 02:34:18;;;;;;;;;;;;;;;17.69;94.62;94931.69;5178388;27;1406;-49
2022/08/16 02:36:45;;;;;;;;;;;;;;;17.71;94.90;94948.53;5160014;27;1910;-49
2022/08/16 02:39:13;;;;;;;;;;;;;;;17.70;95.21;94946.84;5159797;27;1083;-49
2022/08/16 02:41:40;;;;;;;;;;;;;;;17.83;94.71;94946.84;5178301;27;1052;-49
2022/08/16 02:44:09;;;;;;;;;;;;;;;17.91;94.01;94951.22;5169177;27;1220;-49
2022/08/16 02:46:36;;;;;;;;;;;;;;;17.92;94.39;94969.94;5157454;27;1020;-49
2022/08/16 02:49:04;;;;;;;;;;;;;;;17.92;94.40;94969.09;5138804;27;1031;-49
2022/08/16 02:51:31;;;;;;;;;;;;;;;17.90;94.14;94961.19;5157263;27;1083;-48
2022/08/16 02:53:57;;;;;;;;;;;;;;;17.77;95.13;94963.91;5157103;27;1054;-49
2022/08/16 02:56:24;;;;;;;;;;;;;;;17.79;94.91;94963.69;5138696;27;1982;-49
2022/08/16 02:58:51;;;;;;;;;;;;;;;17.80;94.64;94959.97;5157048;27;1192;-49
2022/08/16 03:01:22;;;;;;;;;;;;;;;17.81;94.33;94962.44;5138471;27;1718;-49
2022/08/16 03:03:48;;;;;;;;;;;;;;;17.70;94.94;94976.59;5138816;27;1455;-49
2022/08/16 03:06:18;;;;;;;;;;;;;;;17.63;95.22;94970.38;5138525;27;1705;-49
2022/08/16 03:08:44;;;;;;;;;;;;;;;17.68;94.84;94967.84;5156804;27;980;-49
2022/08/16 03:11:10;;;;;;;;;;;;;;;17.59;94.93;94974.53;5156777;27;972;-49
2022/08/16 03:13:37;;;;;;;;;;;;;;;17.48;95.40;94968.72;5156854;27;1131;-49
2022/08/16 03:16:03;;;;;;;;;;;;;;;17.38;96.18;94979.13;5156487;27;1971;-49
2022/08/16 03:18:30;;;;;;;;;;;;;;;17.34;96.46;94977.88;5157220;27;992;-49
2022/08/16 03:20:58;;;;;;;;;;;;;;;17.33;96.42;94974.31;5156527;27;1094;-49
2022/08/16 03:23:25;;;;;;;;;;;;;;;17.53;94.90;94982.44;5156604;27;1153;-49
2022/08/16 03:25:51;;;;;;;;;;;;;;;17.65;94.92;94995.31;5156468;27;1509;-49
2022/08/16 03:28:19;;;;;;;;;;;;;;;17.55;95.21;94991.16;5138349;27;960;-49
2022/08/16 03:30:45;;;;;;;;;;;;;;;17.50;94.84;94971.22;5156305;27;1016;-49
2022/08/16 03:33:12;;;;;;;;;;;;;;;17.45;94.86;94957.47;5156434;27;960;-49
2022/08/16 03:35:39;;;;;;;;;;;;;;;17.51;93.98;94962.03;5120773;27;1914;-48
2022/08/16 03:38:06;;;;;;;;;;;;;;;17.55;94.03;94968.72;5156349;27;974;-49
2022/08/16 03:40:33;;;;;;;;;;;;;;;17.58;93.72;94976.41;5137728;27;1035;-49
2022/08/16 03:42:59;;;;;;;;;;;;;;;17.54;93.89;94984.09;5156123;27;1035;-49
2022/08/16 03:45:25;;;;;;;;;;;;;;;17.27;95.21;94991.38;5157698;27;1180;-49
2022/08/16 03:47:52;;;;;;;;;;;;;;;17.19;95.64;95002.38;5158722;27;961;-49
2022/08/16 03:50:18;;;;;;;;;;;;;;;17.29;94.31;94997.38;5158537;27;1532;-48
2022/08/16 03:52:45;;;;;;;;;;;;;;;17.35;94.19;95001.97;5176932;27;1043;-49
2022/08/16 03:55:12;;;;;;;;;;;;;;;17.41;94.11;95004.88;5158235;27;1994;-49
2022/08/16 03:57:39;;;;;;;;;;;;;;;17.28;94.41;95003.00;5176845;27;1024;-49
2022/08/16 04:00:13;;;;;;;;;;;;;;;17.16;95.78;95008.19;5158110;27;1202;-49
2022/08/16 04:02:41;;;;;;;;;;;;;;;17.19;95.23;95013.19;5158452;27;1411;-49
2022/08/16 04:05:08;;;;;;;;;;;;;;;17.21;95.31;95015.69;5176433;27;1027;-49
2022/08/16 04:07:35;;;;;;;;;;;;;;;17.27;95.33;95015.69;5158446;27;1728;-49
2022/08/16 04:10:02;;;;;;;;;;;;;;;17.33;95.54;95022.13;5176454;27;1027;-49
2022/08/16 04:12:29;;;;;;;;;;;;;;;17.40;95.80;95014.06;5157489;27;1019;-49
2022/08/16 04:14:55;;;;;;;;;;;;;;;17.44;95.63;95009.88;5176308;27;1995;-49
2022/08/16 04:17:22;;;;;;;;;;;;;;;17.31;94.93;95008.81;5158054;27;1723;-49
2022/08/16 04:19:49;;;;;;;;;;;;;;;17.32;94.59;95001.53;5157968;27;1043;-48
2022/08/16 04:22:15;;;;;;;;;;;;;;;17.45;94.65;95009.66;5176293;27;1083;-49
2022/08/16 04:24:42;;;;;;;;;;;;;;;17.56;94.75;95006.34;5176323;27;1028;-49
2022/08/16 04:27:08;;;;;;;;;;;;;;;17.76;93.46;95000.94;5157796;27;1027;-49
2022/08/16 04:29:34;;;;;;;;;;;;;;;17.85;93.67;95001.59;5176317;27;1075;-49
2022/08/16 04:32:01;;;;;;;;;;;;;;;17.72;93.36;94996.16;5157708;27;1055;-49
2022/08/16 04:34:29;;;;;;;;;;;;;;;17.61;94.09;94992.22;5176135;27;987;-48
2022/08/16 04:36:57;;;;;;;;;;;;;;;17.55;94.95;95001.16;5175877;27;1905;-49
2022/08/16 04:39:27;;;;;;;;;;;;;;;17.60;95.31;95004.06;5176262;27;1024;-49
2022/08/16 04:41:54;;;;;;;;;;;;;;;17.66;95.55;95018.59;5176220;27;1505;-49
2022/08/16 04:44:20;;;;;;;;;;;;;;;17.79;94.18;95012.38;5146659;27;1224;-49
2022/08/16 04:46:46;;;;;;;;;;;;;;;17.95;93.76;95010.09;5136685;27;1028;-48
2022/08/16 04:49:13;;;;;;;;;;;;;;;18.13;94.15;95009.41;5136809;27;962;-49
2022/08/16 04:51:42;;;;;;;;;;;;;;;18.27;93.13;95015.66;5136636;27;1440;-49
2022/08/16 04:54:09;;;;;;;;;;;;;;;18.47;92.09;95017.47;5155003;27;1032;-49
2022/08/16 04:56:36;;;;;;;;;;;;;;;18.70;90.60;95006.97;5136481;27;1976;-49
2022/08/16 04:59:04;;;;;;;;;;;;;;;18.84;90.72;95007.75;5136900;27;1658;-49
2022/08/16 05:01:30;;;;;;;;;;;;;;;19.01;90.79;95018.94;5136439;27;1020;-49
2022/08/16 05:03:57;;;;;;;;;;;;;;;19.10;90.13;95014.91;5136424;27;1675;-49
2022/08/16 05:06:24;;;;;;;;;;;;;;;19.28;90.65;95016.88;5136740;27;1826;-49
2022/08/16 05:08:50;;;;;;;;;;;;;;;19.36;89.06;95009.53;5155037;27;2007;-49
2022/08/16 05:11:16;;;;;;;;;;;;;;;19.28;88.94;95018.78;5154668;27;1028;-49
2022/08/16 05:13:44;;;;;;;;;;;;;;;19.44;88.71;95020.13;5154932;27;1099;-49
2022/08/16 05:16:19;;;;;;;;;;;;;;;19.51;87.25;95023.63;5154739;27;1910;-49
2022/08/16 05:18:47;;;;;;;;;;;;;;;19.60;87.73;95000.59;5155074;27;1525;-49
2022/08/16 05:21:14;;;;;;;;;;;;;;;19.67;88.13;95008.66;5154478;27;1675;-49
2022/08/16 05:23:41;;;;;;;;;;;;;;;19.66;86.94;94991.56;5137175;27;1502;-49
2022/08/16 05:26:07;;;;;;;;;;;;;;;19.77;87.14;94986.50;5140485;27;1566;-49
2022/08/16 05:28:33;;;;;;;;;;;;;;;19.95;86.39;94993.84;5158991;27;1147;-48
2022/08/16 05:31:00;;;;;;;;;;;;;;;20.04;86.50;94987.09;5158859;27;961;-52
2022/08/16 05:33:26;;;;;;;;;;;;;;;20.19;86.56;94984.03;5158619;27;979;-49
2022/08/16 05:35:52;;;;;;;;;;;;;;;20.50;84.61;94998.50;5140230;27;1901;-49
2022/08/16 05:38:26;;;;;;;;;;;;;;;20.71;83.00;94986.38;5140087;27;1106;-49
2022/08/16 05:40:59;;;;;;;;;;;;;;;20.76;82.96;94990.06;5158740;27;1016;-48
2022/08/16 05:43:26;;;;;;;;;;;;;;;20.73;82.81;94981.53;5131181;27;1250;-48
2022/08/16 05:45:52;;;;;;;;;;;;;;;20.71;83.73;94989.09;5137798;27;1091;-49
2022/08/16 05:48:19;;;;;;;;;;;;;;;20.79;82.41;94984.19;5102507;27;961;-49
2022/08/16 05:50:45;;;;;;;;;;;;;;;20.91;81.11;94978.78;5137776;27;1099;-49
2022/08/16 05:53:11;;;;;;;;;;;;;;;21.04;80.43;94985.94;5119235;27;1040;-48
2022/08/16 05:55:38;;;;;;;;;;;;;;;21.06;80.58;94984.66;5137711;27;1905;-49
2022/08/16 05:58:04;;;;;;;;;;;;;;;21.15;79.40;94985.16;5137366;27;1060;-49
2022/08/16 06:00:30;;;;;;;;;;;;;;;21.16;79.71;94970.50;5137472;27;1095;-48
2022/08/16 06:02:57;;;;;;;;;;;;;;;21.18;79.45;94965.66;5137353;27;1131;-48
2022/08/16 06:05:23;;;;;;;;;;;;;;;21.40;78.30;94965.13;5137546;27;980;-48
2022/08/16 06:07:50;;;;;;;;;;;;;;;21.42;78.06;94976.59;5137387;27;972;-48
2022/08/16 06:10:17;;;;;;;;;;;;;;;21.33;78.24;94965.22;5137225;27;1115;-49
2022/08/16 06:12:43;;;;;;;;;;;;;;;21.42;78.82;94955.66;5118948;27;1095;-48
2022/08/16 06:15:14;;;;;;;;;;;;;;;21.58;79.24;94962.34;5137063;27;1913;-49
2022/08/16 06:17:41;;;;;;;;;;;;;;;21.81;77.52;94963.44;5137066;27;1143;-48
2022/08/16 06:20:08;;;;;;;;;;;;;;;21.96;75.45;94963.78;5102141;27;1534;-48
2022/08/16 06:22:36;;;;;;;;;;;;;;;22.11;75.59;94962.50;5137041;27;976;-48
2022/08/16 06:25:02;;;;;;;;;;;;;;;22.27;74.62;94956.34;5137053;27;985;-48
2022/08/16 06:27:29;;;;;;;;;;;;;;;22.30;73.55;94950.41;5101869;27;1059;-48
2022/08/16 06:29:55;;;;;;;;;;;;;;;22.43;73.02;94943.88;5119096;27;1028;-49
2022/08/16 06:32:21;;;;;;;;;;;;;;;22.65;72.59;94946.78;5136961;27;987;-48
2022/08/16 06:34:47;;;;;;;;;;;;;;;22.86;72.99;94941.72;5137013;27;1063;-49
2022/08/16 06:37:14;;;;;;;;;;;;;;;23.00;72.46;94941.19;5117472;27;1985;-48
2022/08/16 06:39:40;;;;;;;;;;;;;;;23.23;72.12;94947.63;5118619;27;1028;-48
2022/08/16 06:42:06;;;;;;;;;;;;;;;23.50;70.64;94947.81;5118391;27;1013;-48
2022/08/16 06:44:32;;;;;;;;;;;;;;;23.55;69.97;94944.38;5148728;27;1138;-48
2022/08/16 06:46:59;;;;;;;;;;;;;;;23.78;70.15;94946.94;5139078;27;1130;-48
2022/08/16 06:49:25;;;;;;;;;;;;;;;24.04;69.63;94938.34;5138741;27;1048;-49
2022/08/16 06:51:51;;;;;;;;;;;;;;;24.22;68.41;94938.03;5139144;27;965;-48
2022/08/16 06:54:17;;;;;;;;;;;;;;;24.30;68.13;94939.50;5156991;27;1075;-48
2022/08/16 06:56:44;;;;;;;;;;;;;;;24.47;66.08;94947.66;5138750;27;1987;-48
2022/08/16 06:59:10;;;;;;;;;;;;;;;24.57;66.65;94927.88;5156867;27;1087;-48
2022/08/16 07:01:36;;;;;;;;;;;;;;;24.74;65.27;94929.47;5138754;27;1029;-48
2022/08/16 07:04:02;;;;;;;;;;;;;;;25.06;66.37;94936.09;5156981;27;1026;-48
2022/08/16 07:06:30;;;;;;;;;;;;;;;25.25;66.48;94929.22;5138714;27;1519;-49
2022/08/16 07:08:56;;;;;;;;;;;;;;;25.38;65.51;94927.13;5156749;27;1027;-49
2022/08/16 07:11:24;;;;;;;;;;;;;;;25.55;66.71;94927.00;5156723;27;1122;-50
2022/08/16 07:13:51;;;;;;;;;;;;;;;25.71;64.40;94918.66;5156670;27;1024;-49
2022/08/16 07:16:17;;;;;;;;;;;;;;;25.79;64.65;94917.34;5156862;27;1909;-49
2022/08/16 07:18:43;;;;;;;;;;;;;;;25.83;65.69;94913.00;5156843;27;829;-49
2022/08/16 07:21:11;;;;;;;;;;;;;;;25.98;65.37;94915.06;5156641;27;1885;-49
2022/08/16 07:23:38;;;;;;;;;;;;;;;26.17;64.89;94922.84;5156549;27;1031;-49
2022/08/16 07:26:06;;;;;;;;;;;;;;;26.20;64.62;94914.09;5156520;27;1039;-49
2022/08/16 07:28:32;;;;;;;;;;;;;;;26.40;64.01;94919.69;5156605;27;1040;-49
2022/08/16 07:31:00;;;;;;;;;;;;;;;26.52;63.91;94924.13;5156665;27;1039;-50
2022/08/16 07:33:26;;;;;;;;;;;;;;;26.44;65.19;94923.53;5156203;27;1099;-49
2022/08/16 07:35:52;;;;;;;;;;;;;;;26.46;63.91;94915.06;5156510;27;2320;-49
2022/08/16 07:38:18;;;;;;;;;;;;;;;26.57;62.01;94919.50;5156251;27;994;-49
2022/08/16 07:40:44;;;;;;;;;;;;;;;26.64;63.61;94916.53;5156273;27;1039;-49
2022/08/16 07:43:11;;;;;;;;;;;;;;;26.42;63.92;94922.16;5162152;27;1144;-49
2022/08/16 07:45:37;;;;;;;;;;;;;;;26.40;64.24;94927.91;5156303;27;1035;-49
2022/08/16 07:48:03;;;;;;;;;;;;;;;26.29;64.31;94923.47;5156149;27;1007;-49
2022/08/16 07:50:29;;;;;;;;;;;;;;;26.29;64.49;94920.72;5155974;27;1023;-50
2022/08/16 07:52:55;;;;;;;;;;;;;;;26.24;65.12;94932.47;5156148;27;948;-49
2022/08/16 07:55:21;;;;;;;;;;;;;;;26.11;64.99;94932.94;5155689;27;1905;-49
2022/08/16 07:57:47;;;;;;;;;;;;;;;26.12;66.46;94931.84;5137840;27;968;-48
2022/08/16 08:00:14;;;;;;;;;;;;;;;26.10;65.72;94934.03;5137330;27;1028;-48
2022/08/16 08:02:41;;;;;;;;;;;;;;;26.05;67.25;94934.84;5137654;27;1024;-49
2022/08/16 08:05:08;;;;;;;;;;;;;;;26.14;66.16;94939.81;5155662;27;972;-49
2022/08/16 08:07:34;;;;;;;;;;;;;;;26.12;65.50;94944.72;5155887;27;1025;-48
2022/08/16 08:10:00;;;;;;;;;;;;;;;26.24;65.48;94932.47;5137200;27;1047;-49
2022/08/16 08:12:27;;;;;;;;;;;;;;;26.24;65.20;94939.88;5137538;27;969;-49
2022/08/16 08:14:53;;;;;;;;;;;;;;;26.21;65.08;94935.75;5155484;27;1087;-49
2022/08/16 08:17:19;;;;;;;;;;;;;;;26.33;66.66;94941.00;5137115;27;1985;-49
2022/08/16 08:19:46;;;;;;;;;;;;;;;26.55;66.07;94940.88;5137162;27;1056;-48
2022/08/16 08:22:12;;;;;;;;;;;;;;;26.55;63.83;94929.91;5155537;27;1023;-49
2022/08/16 08:24:38;;;;;;;;;;;;;;;26.67;65.84;94943.41;5155271;27;1087;-49
2022/08/16 08:27:07;;;;;;;;;;;;;;;26.60;62.90;94937.38;5155651;27;1049;-49
2022/08/16 08:29:34;;;;;;;;;;;;;;;26.72;64.38;94939.88;5155206;27;1059;-49
2022/08/16 08:32:00;;;;;;;;;;;;;;;26.88;65.53;94938.84;5155409;27;1111;-49
2022/08/16 08:34:26;;;;;;;;;;;;;;;26.90;64.42;94942.16;5155232;27;981;-49
2022/08/16 08:36:53;;;;;;;;;;;;;;;27.05;64.01;94938.63;5155335;27;1910;-49
2022/08/16 08:39:19;;;;;;;;;;;;;;;27.12;62.76;94930.97;5136621;27;1008;-49
2022/08/16 08:41:46;;;;;;;;;;;;;;;27.25;63.31;94937.88;5136866;27;1039;-49
2022/08/16 08:44:13;;;;;;;;;;;;;;;27.33;63.47;94929.09;5164544;27;1136;-49
2022/08/16 08:46:39;;;;;;;;;;;;;;;27.38;63.72;94942.84;5176423;27;1172;-49
2022/08/16 08:49:07;;;;;;;;;;;;;;;27.52;63.48;94942.31;5176184;27;1807;-49
2022/08/16 08:51:34;;;;;;;;;;;;;;;27.69;63.55;94931.88;5175948;27;1083;-50
2022/08/16 08:54:00;;;;;;;;;;;;;;;27.76;63.55;94932.44;5175842;27;1036;-49
2022/08/16 08:56:29;;;;;;;;;;;;;;;27.80;63.09;94933.53;5175658;27;1996;-49
2022/08/16 08:58:55;;;;;;;;;;;;;;;27.81;62.78;94931.59;5175627;27;1035;-49
2022/08/16 09:01:25;;;;;;;;;;;;;;;27.88;62.59;94928.59;5140124;27;2028;-50
2022/08/16 09:03:51;;;;;;;;;;;;;;;27.92;60.97;94925.03;5175998;27;971;-49
2022/08/16 09:06:17;;;;;;;;;;;;;;;28.00;61.77;94916.25;5176109;27;1247;-49
2022/08/16 09:08:43;;;;;;;;;;;;;;;28.08;61.53;94919.53;5157379;27;1011;-49
2022/08/16 09:11:10;;;;;;;;;;;;;;;28.20;60.92;94918.13;5175576;27;1050;-49
2022/08/16 09:13:36;;;;;;;;;;;;;;;28.30;61.27;94911.78;5175789;27;1027;-49
2022/08/16 09:16:02;;;;;;;;;;;;;;;28.34;58.91;94901.91;5175672;27;1909;-49
2022/08/16 09:18:29;;;;;;;;;;;;;;;28.42;60.04;94906.00;5175849;27;963;-49
2022/08/16 09:20:55;;;;;;;;;;;;;;;28.37;56.54;94906.00;5157134;27;1106;-49
2022/08/16 09:23:21;;;;;;;;;;;;;;;28.31;59.71;94909.88;5175555;27;955;-49
2022/08/16 09:25:48;;;;;;;;;;;;;;;28.37;59.56;94908.75;5175753;27;916;-49
2022/08/16 09:28:14;;;;;;;;;;;;;;;28.35;56.83;94917.28;5175542;27;1118;-50
2022/08/16 09:30:41;;;;;;;;;;;;;;;28.40;58.95;94903.53;5175418;27;1144;-49
2022/08/16 09:33:07;;;;;;;;;;;;;;;28.54;58.46;94903.78;5175684;27;1059;-50
2022/08/16 09:35:36;;;;;;;;;;;;;;;28.69;57.33;94913.09;5175248;27;1984;-49
2022/08/16 09:38:02;;;;;;;;;;;;;;;28.74;56.41;94913.03;5175772;27;1711;-49
2022/08/16 09:40:29;;;;;;;;;;;;;;;28.72;56.74;94910.59;5175621;27;973;-49
2022/08/16 09:42:57;;;;;;;;;;;;;;;28.88;56.38;94916.84;5175337;27;1599;-50
2022/08/16 09:45:24;;;;;;;;;;;;;;;28.93;53.73;94908.56;5155542;27;1187;-49
2022/08/16 09:47:53;;;;;;;;;;;;;;;29.04;56.49;94908.50;5154825;27;1079;-49
2022/08/16 09:50:20;;;;;;;;;;;;;;;29.10;55.42;94901.84;5136000;27;1007;-49
2022/08/16 09:52:46;;;;;;;;;;;;;;;29.09;55.73;94908.50;5154526;27;995;-49
2022/08/16 09:55:12;;;;;;;;;;;;;;;29.09;54.33;94902.97;5154443;27;1988;-49
2022/08/16 09:57:40;;;;;;;;;;;;;;;29.05;53.47;94896.41;5154415;27;1072;-49
2022/08/16 10:00:10;;;;;;;;;;;;;;;28.93;53.79;94900.31;5154313;27;1028;-49
2022/08/16 10:02:36;;;;;;;;;;;;;;;28.93;52.79;94899.47;5154245;27;981;-49
2022/08/16 10:05:03;;;;;;;;;;;;;;;29.05;52.97;94890.91;5154168;27;1043;-49
2022/08/16 10:07:30;;;;;;;;;;;;;;;29.07;50.26;94906.00;5154393;27;1060;-49
2022/08/16 10:09:56;;;;;;;;;;;;;;;29.12;51.79;94892.22;5135915;27;1012;-49
2022/08/16 10:15:14;;;;;;;;;;;;;;;29.34;47.44;94897.34;5157853;27;1909;-49
2022/08/16 10:17:41;;;;;;;;;;;;;;;29.30;47.08;94896.25;5157695;27;964;-50
2022/08/16 10:20:10;;;;;;;;;;;;;;;29.31;50.46;94897.06;5157772;27;1941;-49
2022/08/16 10:22:37;;;;;;;;;;;;;;;29.38;50.03;94894.84;5157864;27;1024;-50
2022/08/16 10:25:04;;;;;;;;;;;;;;;29.40;48.83;94903.63;5157658;27;1863;-50
2022/08/16 10:27:30;;;;;;;;;;;;;;;29.34;48.95;94904.78;5157583;27;1035;-50
2022/08/16 10:29:56;;;;;;;;;;;;;;;29.38;50.00;94903.09;5157591;27;1020;-50
2022/08/16 10:32:22;;;;;;;;;;;;;;;29.42;47.28;94904.16;5157322;27;1012;-50
2022/08/16 10:34:48;;;;;;;;;;;;;;;29.51;50.19;94910.72;5157548;27;1036;-50
2022/08/16 10:37:14;;;;;;;;;;;;;;;29.58;47.28;94905.69;5157372;27;1909;-50
2022/08/16 10:39:40;;;;;;;;;;;;;;;29.60;46.60;94905.41;5157625;27;1036;-50
2022/08/16 10:42:06;;;;;;;;;;;;;;;29.66;49.33;94898.75;5157275;27;980;-50
2022/08/16 10:44:32;;;;;;;;;;;;;;;29.68;48.55;94899.28;5169645;27;1225;-50
2022/08/16 10:46:58;;;;;;;;;;;;;;;29.63;47.74;94901.25;5178013;27;1233;-50
2022/08/16 10:49:24;;;;;;;;;;;;;;;29.59;49.88;94901.00;5178105;27;1024;-50
2022/08/16 10:51:54;;;;;;;;;;;;;;;29.50;50.36;94897.22;5178132;27;976;-50
2022/08/16 10:54:21;;;;;;;;;;;;;;;29.51;49.99;94909.91;5178327;27;1098;-50
2022/08/16 10:56:47;;;;;;;;;;;;;;;29.55;49.79;94898.00;5177805;27;1906;-50
2022/08/16 10:59:14;;;;;;;;;;;;;;;29.62;47.99;94900.44;5177906;27;1038;-50
2022/08/16 11:01:39;;;;;;;;;;;;;;;29.66;46.23;94895.19;5178171;27;1060;-50
2022/08/16 11:04:06;;;;;;;;;;;;;;;29.68;42.22;94893.78;5177984;27;1002;-50
2022/08/16 11:06:33;;;;;;;;;;;;;;;29.82;43.33;94882.13;5177882;27;1851;-50
2022/08/16 11:08:59;;;;;;;;;;;;;;;29.88;43.73;94886.47;5177623;27;1004;-50
2022/08/16 11:11:25;;;;;;;;;;;;;;;29.83;43.67;94890.09;5177780;27;1051;-49
2022/08/16 11:13:51;;;;;;;;;;;;;;;29.81;44.08;94881.31;5177485;27;980;-50
2022/08/16 11:16:18;;;;;;;;;;;;;;;29.83;43.48;94881.84;5177812;27;1987;-50
2022/08/16 11:18:44;;;;;;;;;;;;;;;29.82;43.00;94876.59;5177631;27;945;-50
2022/08/16 11:21:11;;;;;;;;;;;;;;;29.81;43.92;94877.75;5177334;27;1047;-50
2022/08/16 11:23:37;;;;;;;;;;;;;;;29.77;42.95;94874.72;5177164;27;1030;-49
2022/08/16 11:26:04;;;;;;;;;;;;;;;29.84;41.77;94872.47;5177668;27;2140;-49
2022/08/16 11:28:30;;;;;;;;;;;;;;;29.91;43.85;94864.66;5177198;27;1073;-49
2022/08/16 11:30:56;;;;;;;;;;;;;;;29.89;43.40;94866.91;5177221;27;1090;-49
2022/08/16 11:33:22;;;;;;;;;;;;;;;30.00;43.50;94866.81;5177224;27;957;-49
2022/08/16 11:35:48;;;;;;;;;;;;;;;30.06;42.81;94868.41;5177339;27;1929;-50
2022/08/16 11:38:16;;;;;;;;;;;;;;;30.01;42.86;94860.16;5177058;27;983;-50
2022/08/16 11:40:55;;;;;;;;;;;;;;;29.92;42.63;94865.50;5158725;27;1047;-50
2022/08/16 11:43:23;;;;;;;;;;;;;;;29.83;43.28;94873.56;5174366;27;1233;-50
2022/08/16 11:45:49;;;;;;;;;;;;;;;29.75;44.72;94869.50;5156443;27;1055;-49
2022/08/16 11:48:17;;;;;;;;;;;;;;;29.58;41.49;94872.66;5155831;27;1012;-50
2022/08/16 11:50:45;;;;;;;;;;;;;;;29.54;43.45;94871.59;5137871;27;985;-50
2022/08/16 11:53:11;;;;;;;;;;;;;;;29.57;42.58;94865.47;5155904;27;1019;-50
2022/08/16 11:55:38;;;;;;;;;;;;;;;29.75;41.77;94866.75;5155825;27;2008;-50
2022/08/16 11:58:05;;;;;;;;;;;;;;;29.93;43.72;94862.44;5155914;27;1023;-50
2022/08/16 12:00:32;;;;;;;;;;;;;;;30.09;41.52;94854.00;5155875;27;1012;-50
2022/08/16 12:02:58;;;;;;;;;;;;;;;30.14;42.28;94846.50;5155613;27;1011;-50
2022/08/16 12:05:25;;;;;;;;;;;;;;;30.08;41.90;94841.38;5155841;27;1206;-49
2022/08/16 12:07:53;;;;;;;;;;;;;;;29.99;40.85;94846.69;5155656;27;955;-50
2022/08/16 12:10:21;;;;;;;;;;;;;;;29.81;42.09;94830.91;5155571;27;972;-50
2022/08/16 12:12:47;;;;;;;;;;;;;;;29.51;41.25;94843.78;5155754;27;1227;-50
2022/08/16 12:15:14;;;;;;;;;;;;;;;29.49;40.89;94844.06;5155463;27;1986;-50
2022/08/16 12:17:41;;;;;;;;;;;;;;;29.53;42.00;94842.38;5137213;27;1027;-50
2022/08/16 12:20:10;;;;;;;;;;;;;;;29.54;39.96;94844.03;5155590;27;1010;-50
2022/08/16 12:22:36;;;;;;;;;;;;;;;29.59;40.49;94844.00;5155528;27;957;-49
2022/08/16 12:25:04;;;;;;;;;;;;;;;29.66;41.58;94834.59;5155178;27;1857;-50
2022/08/16 12:27:30;;;;;;;;;;;;;;;29.75;40.73;94841.16;5155778;27;1011;-49
2022/08/16 12:29:56;;;;;;;;;;;;;;;29.84;41.81;94841.31;5155332;27;1042;-50
2022/08/16 12:32:22;;;;;;;;;;;;;;;30.03;42.86;94850.50;5155413;27;957;-49
2022/08/16 12:34:48;;;;;;;;;;;;;;;30.15;40.29;94845.41;5154322;27;1040;-49
2022/08/16 12:37:15;;;;;;;;;;;;;;;30.23;39.44;94840.38;5155095;27;1929;-49
2022/08/16 12:39:42;;;;;;;;;;;;;;;30.21;40.37;94845.38;5155010;27;1047;-49
2022/08/16 12:42:08;;;;;;;;;;;;;;;30.17;40.91;94834.09;5155041;27;1083;-50
2022/08/16 12:44:35;;;;;;;;;;;;;;;30.13;40.13;94831.09;5167376;27;1257;-49
2022/08/16 12:49:47;;;;;;;;;;;;;;;29.88;40.56;94831.34;5175975;27;984;-49
2022/08/16 12:52:13;;;;;;;;;;;;;;;29.66;41.20;94823.56;5175875;27;968;-49
2022/08/16 12:54:40;;;;;;;;;;;;;;;29.34;45.10;94834.00;5175717;27;1022;-49
2022/08/16 12:57:07;;;;;;;;;;;;;;;29.01;43.50;94827.34;5175698;27;1901;-49
2022/08/16 12:59:34;;;;;;;;;;;;;;;28.95;45.28;94832.06;5175813;27;969;-49
2022/08/16 13:02:00;;;;;;;;;;;;;;;29.08;45.01;94830.59;5175791;27;933;-49